VAM Template | Vabird

Vabird! Vabird Marcello Mazzieri




 INFORMACIÓN METAR y TAF
METAR FOR EYVI
ADDS - METARS form results

(0511 UTC 21 October 2020)
Data provider http://aviationweather.gov/metar/data/
 
METAR text: EYVI 210450Z 17011KT CAVOK 05/04 Q1013 NOSIG
Conditions at: EYVI (VILNIUS INTL , LT) observed 0450 UTC 21 October 2020
Temperature: 5.0°C (41°F)
Dewpoint: 4.0°C (39°F) [RH = 93%]
Pressure (altimeter): 29.91 inches Hg (1013.0 mb)
Winds: from the S (170 degrees) at 13 MPH (11 knots; 5.7 m/s)
Visibility: 6 or more miles (10+ km)
Ceiling: ceiling and visibility are OK
Clouds: unknown
Weather: no significant weather observed at this time

METAR text: EYVI 210420Z 17011KT CAVOK 05/04 Q1013 NOSIG
Conditions at: EYVI (VILNIUS INTL , LT) observed 0420 UTC 21 October 2020
Temperature: 5.0°C (41°F)
Dewpoint: 4.0°C (39°F) [RH = 93%]
Pressure (altimeter): 29.91 inches Hg (1013.0 mb)
Winds: from the S (170 degrees) at 13 MPH (11 knots; 5.7 m/s)
Visibility: 6 or more miles (10+ km)
Ceiling: ceiling and visibility are OK
Clouds: unknown
Weather: no significant weather observed at this time

Forecast for: COR
Text: TAF COR EYVI 210510Z 2106/2206 18013KT 8000 BKN015
Forecast period: 0600 to 1200 UTC 21 October 2020
Forecast type: FROM: standard forecast or significant change
Winds: from the S (180 degrees) at 15 MPH (13 knots; 6.7 m/s)
Visibility: 5 miles (8 km)
Ceiling: 1500 feet AGL
Clouds: broken clouds at 1500 feet AGL
Weather: no significant weather forecast for this period
Text: TEMPO 2106/2112 BKN005
Forecast period: 0600 to 1200 UTC 21 October 2020
Forecast type: TEMPORARY: The following changes expected for less than half the time period
Visibility: missing
Ceiling: 500 feet AGL
Clouds: broken clouds at 500 feet AGL
Weather: no significant weather forecast for this period
Text: PROB40
Forecast period: 0600 to 1200 UTC 21 October 2020
Forecast type: TEMPORARY: The following changes expected for less than half the time period
Visibility: 3 miles (5 km)
Ceiling: unknown
Clouds: missing
Weather: RA BR  (moderate rain, mist)
Text: TEMPO 2106/2112 5000 RA BR
Forecast period: 1200 UTC 21 October 2020 to 0600 UTC 22 October 2020
Forecast type: BECOMING: Conditions expected to become as follows by 1400 UTC 21 October 2020
Winds: from the S (180 degrees) at 15 MPH (13 knots; 6.7 m/s)
Visibility: 5 miles (8 km)
Ceiling: 1000 feet AGL
Clouds: overcast cloud deck at 1000 feet AGL
Weather: no significant weather forecast for this period
Text: BECMG 2112/2114 OVC010
Forecast period: 0000 to 0600 UTC 22 October 2020
Forecast type: TEMPORARY: The following changes expected for less than half the time period
Visibility: 1.86 miles (2.99 km)
Ceiling: 500 feet AGL
Clouds: broken clouds at 500 feet AGL
Weather: BR  (mist)

 MAPA DE AEROPUERTO

 INFORMACIÓN DE PISTA